createdAt,value
2018-07-03T00:00:33.501Z,13.83
2018-07-03T00:01:33.503Z,13.80
2018-07-03T00:02:33.537Z,13.76
2018-07-03T00:03:33.551Z,13.80
2018-07-03T00:04:33.570Z,13.79
2018-07-03T00:05:33.583Z,13.79
2018-07-03T00:06:33.608Z,13.78
2018-07-03T00:07:33.634Z,13.73
2018-07-03T00:08:33.650Z,13.89
2018-07-03T00:09:33.676Z,13.83
2018-07-03T00:10:33.729Z,13.75
2018-07-03T00:11:33.713Z,13.67
2018-07-03T00:12:33.730Z,13.68
2018-07-03T00:13:33.755Z,13.68
2018-07-03T00:14:33.796Z,13.70
2018-07-03T00:15:33.797Z,13.65
2018-07-03T00:16:33.820Z,13.65
2018-07-03T00:17:33.832Z,13.65
2018-07-03T00:18:33.859Z,13.62
2018-07-03T00:19:33.874Z,13.65
2018-07-03T00:20:33.895Z,13.67
2018-07-03T00:21:33.908Z,13.62
2018-07-03T00:22:33.937Z,13.67
2018-07-03T00:23:33.951Z,13.62
2018-07-03T00:24:33.981Z,13.64
2018-07-03T00:25:34.008Z,13.64
2018-07-03T00:26:34.016Z,13.62
2018-07-03T00:27:34.041Z,13.65
2018-07-03T00:28:34.062Z,13.71
2018-07-03T00:29:34.086Z,13.67
2018-07-03T00:30:34.097Z,13.64
2018-07-03T00:31:34.123Z,13.55
2018-07-03T00:32:34.133Z,13.58
2018-07-03T00:33:34.158Z,13.61
2018-07-03T00:34:34.178Z,13.65
2018-07-03T00:35:34.208Z,13.57
2018-07-03T00:36:34.225Z,13.58
2018-07-03T00:37:34.243Z,13.55
2018-07-03T00:38:34.263Z,13.57
2018-07-03T00:39:34.277Z,13.55
2018-07-03T00:40:34.306Z,13.60
2018-07-03T00:41:34.320Z,13.54
2018-07-03T00:42:34.342Z,13.55
2018-07-03T00:43:34.367Z,13.60
2018-07-03T00:44:34.385Z,13.58
2018-07-03T00:45:34.399Z,13.57
2018-07-03T00:46:34.427Z,13.57
2018-07-03T00:47:34.441Z,13.54
2018-07-03T00:48:34.463Z,13.52
2018-07-03T00:49:34.489Z,13.54
2018-07-03T00:50:34.506Z,13.52
2018-07-03T00:51:34.529Z,13.54
2018-07-03T00:52:34.539Z,13.46
2018-07-03T00:53:34.571Z,13.46
2018-07-03T00:54:34.581Z,13.45
2018-07-03T00:55:34.607Z,13.45
2018-07-03T00:56:34.624Z,13.45
2018-07-03T00:57:34.662Z,13.42
2018-07-03T00:58:34.658Z,13.47
2018-07-03T00:59:34.684Z,13.42
2018-07-03T01:00:34.701Z,13.39
2018-07-03T01:01:34.727Z,13.33
2018-07-03T01:02:34.755Z,13.36
2018-07-03T01:03:34.769Z,13.33
2018-07-03T01:04:34.790Z,13.27
2018-07-03T01:05:34.803Z,13.28
2018-07-03T01:06:34.832Z,13.27
2018-07-03T01:07:34.845Z,13.20
2018-07-03T01:08:34.866Z,13.26
2018-07-03T01:09:34.881Z,13.27
2018-07-03T01:10:34.908Z,13.23
2018-07-03T01:11:34.923Z,13.24
2018-07-03T01:12:34.955Z,13.17
2018-07-03T01:13:34.964Z,13.23
2018-07-03T01:14:34.986Z,13.23
2018-07-03T01:15:35.001Z,13.19
2018-07-03T01:16:35.035Z,13.20
2018-07-03T01:17:35.048Z,13.16
2018-07-03T01:18:35.068Z,13.20
2018-07-03T01:19:35.094Z,13.19
2018-07-03T01:20:35.104Z,13.16
2018-07-03T01:21:35.118Z,13.13
2018-07-03T01:22:35.149Z,13.30
2018-07-03T01:23:35.176Z,13.23
2018-07-03T01:24:35.185Z,13.20
2018-07-03T01:25:35.461Z,13.12
2018-07-03T01:26:35.221Z,13.16
2018-07-03T01:27:35.248Z,13.23
2018-07-03T01:28:35.266Z,13.17
2018-07-03T01:29:35.292Z,13.21
2018-07-03T01:30:35.300Z,13.19
2018-07-03T01:31:35.326Z,13.19
2018-07-03T01:32:35.345Z,13.20
2018-07-03T01:33:35.371Z,13.13
2018-07-03T01:34:35.388Z,13.19
2018-07-03T01:35:35.412Z,13.23
2018-07-03T01:36:35.422Z,13.08
2018-07-03T01:37:35.448Z,13.23
2018-07-03T01:38:35.462Z,13.16
2018-07-03T01:39:35.488Z,13.16
2018-07-03T01:40:35.499Z,13.12
2018-07-03T01:41:35.524Z,13.21
2018-07-03T01:42:35.549Z,13.09
2018-07-03T01:43:35.566Z,13.06
2018-07-03T01:44:35.583Z,13.06
2018-07-03T01:45:35.611Z,13.11
2018-07-03T01:46:35.619Z,13.01
2018-07-03T01:47:35.643Z,12.99
2018-07-03T01:48:35.679Z,13.05
2018-07-03T01:49:35.696Z,13.02
2018-07-03T01:50:35.715Z,13.05
2018-07-03T01:51:35.725Z,13.06
2018-07-03T01:52:35.746Z,13.03
2018-07-03T01:53:35.761Z,12.93
2018-07-03T01:54:35.793Z,12.93
2018-07-03T01:55:35.806Z,12.98
2018-07-03T01:56:35.827Z,12.86
2018-07-03T01:57:35.842Z,12.93
2018-07-03T01:58:35.868Z,12.91
2018-07-03T01:59:35.879Z,12.87
2018-07-03T02:00:35.909Z,12.86
2018-07-03T02:01:35.924Z,12.84
2018-07-03T02:02:35.950Z,12.83
2018-07-03T02:03:35.961Z,12.81
2018-07-03T02:04:35.983Z,12.81
2018-07-03T02:05:35.997Z,12.80
2018-07-03T02:06:36.025Z,12.72
2018-07-03T02:07:36.038Z,12.90
2018-07-03T02:08:36.068Z,12.81
2018-07-03T02:09:36.082Z,12.66
2018-07-03T02:10:36.102Z,12.81
2018-07-03T02:11:36.114Z,12.76
2018-07-03T02:12:36.158Z,12.72
2018-07-03T02:13:36.159Z,12.69
2018-07-03T02:14:36.188Z,12.73
2018-07-03T02:15:36.201Z,12.69
2018-07-03T02:16:36.222Z,12.68
2018-07-03T02:17:36.237Z,12.69
2018-07-03T02:18:36.266Z,12.68
2018-07-03T02:19:36.293Z,12.65
2018-07-03T02:20:36.302Z,12.63
2018-07-03T02:21:36.315Z,12.65
2018-07-03T02:22:36.339Z,12.70
2018-07-03T02:23:36.351Z,12.66
2018-07-03T02:24:36.382Z,12.68
2018-07-03T02:25:36.396Z,12.62
2018-07-03T02:26:36.421Z,12.57
2018-07-03T02:27:36.446Z,12.61
2018-07-03T02:28:36.463Z,12.61
2018-07-03T02:29:36.478Z,12.53
2018-07-03T02:30:36.501Z,12.58
2018-07-03T02:31:36.516Z,12.55
2018-07-03T02:32:36.537Z,12.57
2018-07-03T02:33:36.550Z,12.57
2018-07-03T02:34:36.580Z,12.53
2018-07-03T02:35:36.593Z,12.48
2018-07-03T02:36:36.610Z,12.43
2018-07-03T02:37:36.628Z,12.47
2018-07-03T02:38:36.646Z,12.45
2018-07-03T02:39:36.670Z,12.50
2018-07-03T02:40:36.692Z,12.40
2018-07-03T02:41:36.713Z,12.40
2018-07-03T02:42:36.722Z,12.47
2018-07-03T02:43:36.746Z,12.44
2018-07-03T02:44:36.765Z,12.40
2018-07-03T02:45:36.791Z,12.43
2018-07-03T02:46:36.805Z,12.39
2018-07-03T02:47:36.835Z,12.39
2018-07-03T02:48:36.841Z,12.36
2018-07-03T02:49:36.868Z,12.33
2018-07-03T02:50:36.885Z,12.33
2018-07-03T02:51:36.911Z,12.26
2018-07-03T02:52:36.920Z,12.30
2018-07-03T02:53:36.947Z,12.26
2018-07-03T02:54:36.957Z,12.29
2018-07-03T02:55:36.984Z,12.21
2018-07-03T02:56:37.003Z,12.26
2018-07-03T02:57:37.016Z,12.28
2018-07-03T02:58:37.039Z,12.21
2018-07-03T02:59:37.064Z,12.29
2018-07-03T03:00:37.082Z,12.23
2018-07-03T03:01:37.096Z,12.29
2018-07-03T03:02:37.120Z,12.25
2018-07-03T03:03:37.132Z,12.36
2018-07-03T03:04:37.156Z,12.26
2018-07-03T03:05:37.168Z,12.25
2018-07-03T03:06:37.233Z,12.25
2018-07-03T03:07:37.214Z,12.23
2018-07-03T03:08:37.242Z,12.26
2018-07-03T03:09:37.313Z,12.21
2018-07-03T03:10:37.273Z,12.28
2018-07-03T03:11:37.291Z,12.28
2018-07-03T03:12:37.317Z,12.25
2018-07-03T03:13:37.330Z,12.25
2018-07-03T03:14:37.357Z,12.28
2018-07-03T03:15:37.368Z,12.30
2018-07-03T03:16:37.399Z,12.30
2018-07-03T03:17:37.411Z,12.29
2018-07-03T03:18:37.434Z,12.30
2018-07-03T03:19:37.449Z,12.28
2018-07-03T03:20:37.471Z,12.30
2018-07-03T03:21:37.484Z,12.28
2018-07-03T03:22:37.505Z,12.33
2018-07-03T03:23:37.530Z,12.30
2018-07-03T03:24:37.537Z,12.30
2018-07-03T03:25:37.567Z,12.32
2018-07-03T03:26:37.580Z,12.29
2018-07-03T03:27:37.605Z,12.35
2018-07-03T03:28:37.625Z,12.36
2018-07-03T03:29:37.649Z,12.36
2018-07-03T03:30:37.655Z,12.44
2018-07-03T03:31:37.682Z,12.36
2018-07-03T03:32:37.699Z,12.32
2018-07-03T03:33:37.725Z,12.37
2018-07-03T03:34:37.739Z,12.44
2018-07-03T03:35:37.770Z,12.44
2018-07-03T03:36:37.788Z,12.39
2018-07-03T03:37:37.800Z,12.47
2018-07-03T03:38:37.820Z,12.47
2018-07-03T03:39:37.845Z,12.43
2018-07-03T03:40:37.854Z,12.44
2018-07-03T03:41:37.893Z,12.43
2018-07-03T03:42:37.892Z,12.40
2018-07-03T03:43:37.918Z,12.55
2018-07-03T03:44:37.935Z,12.51
2018-07-03T03:45:37.949Z,12.53
2018-07-03T03:46:37.973Z,12.61
2018-07-03T03:47:37.987Z,12.55
2018-07-03T03:48:38.017Z,12.54
2018-07-03T03:49:38.055Z,12.63
2018-07-03T03:50:38.055Z,12.55
2018-07-03T03:51:38.081Z,12.54
2018-07-03T03:52:38.089Z,12.69
2018-07-03T03:53:38.102Z,12.68
2018-07-03T03:54:38.136Z,12.65
2018-07-03T03:55:38.146Z,12.68
2018-07-03T03:56:38.168Z,12.62
2018-07-03T03:57:38.183Z,12.66
2018-07-03T03:58:38.213Z,12.69
2018-07-03T03:59:38.223Z,12.76
2018-07-03T04:00:38.253Z,12.78
2018-07-03T04:01:38.266Z,12.68
2018-07-03T04:02:38.286Z,12.83
2018-07-03T04:03:38.301Z,12.68
2018-07-03T04:04:38.329Z,12.78
2018-07-03T04:05:38.345Z,12.80
2018-07-03T04:06:38.372Z,12.78
2018-07-03T04:07:38.387Z,12.84
2018-07-03T04:08:38.406Z,12.86
2018-07-03T04:09:38.421Z,12.86
2018-07-03T04:10:38.446Z,12.87
2018-07-03T04:11:38.459Z,12.86
2018-07-03T04:12:38.503Z,12.93
2018-07-03T04:13:38.504Z,12.94
2018-07-03T04:14:38.528Z,12.94
2018-07-03T04:15:38.540Z,12.98
2018-07-03T04:16:38.564Z,12.99
2018-07-03T04:17:38.576Z,13.03
2018-07-03T04:18:38.608Z,13.05
2018-07-03T04:19:38.638Z,13.12
2018-07-03T04:20:38.644Z,13.02
2018-07-03T04:21:38.657Z,13.13
2018-07-03T04:22:38.682Z,13.13
2018-07-03T04:23:38.697Z,13.19
2018-07-03T04:24:38.723Z,13.09
2018-07-03T04:25:38.749Z,13.12
2018-07-03T04:26:38.764Z,13.16
2018-07-03T04:27:38.786Z,13.19
2018-07-03T04:28:38.802Z,13.13
2018-07-03T04:29:38.828Z,13.23
2018-07-03T04:30:38.846Z,13.26
2018-07-03T04:31:38.871Z,13.26
2018-07-03T04:32:38.881Z,13.26
2018-07-03T04:33:38.906Z,13.36
2018-07-03T04:34:38.922Z,13.37
2018-07-03T04:35:38.951Z,13.47
2018-07-03T04:36:38.956Z,13.43
2018-07-03T04:37:38.983Z,13.47
2018-07-03T04:38:38.999Z,13.52
2018-07-03T04:39:39.024Z,13.55
2018-07-03T04:40:39.041Z,13.55
2018-07-03T04:41:39.067Z,13.65
2018-07-03T04:42:39.077Z,13.67
2018-07-03T04:43:39.103Z,13.75
2018-07-03T04:44:39.121Z,13.68
2018-07-03T04:45:39.146Z,13.67
2018-07-03T04:46:39.170Z,13.79
2018-07-03T04:47:39.184Z,13.75
2018-07-03T04:48:39.206Z,13.79
2018-07-03T04:49:39.220Z,13.85
2018-07-03T04:50:39.251Z,13.76
2018-07-03T04:51:39.266Z,13.85
2018-07-03T04:52:39.287Z,13.87
2018-07-03T04:53:39.300Z,13.89
2018-07-03T04:54:39.324Z,13.89
2018-07-03T04:55:39.341Z,13.95
2018-07-03T04:56:39.369Z,14.01
2018-07-03T04:57:39.384Z,14.03
2018-07-03T04:58:39.402Z,14.11
2018-07-03T04:59:39.428Z,14.13
2018-07-03T05:00:39.451Z,14.19
2018-07-03T05:01:39.475Z,14.25
2018-07-03T05:02:39.491Z,14.22
2018-07-03T05:03:39.527Z,14.23
2018-07-03T05:04:39.524Z,14.33
2018-07-03T05:05:39.550Z,14.36
2018-07-03T05:06:39.565Z,14.40
2018-07-03T05:07:39.591Z,14.38
2018-07-03T05:08:39.612Z,14.55
2018-07-03T05:09:39.626Z,14.58
2018-07-03T05:10:39.655Z,14.67
2018-07-03T05:11:39.669Z,14.68
2018-07-03T05:12:39.699Z,14.62
2018-07-03T05:13:39.714Z,14.63
2018-07-03T05:14:39.736Z,14.74
2018-07-03T05:15:39.757Z,14.85
2018-07-03T05:16:39.775Z,14.85
2018-07-03T05:17:39.802Z,14.89
2018-07-03T05:18:39.817Z,14.94
2018-07-03T05:19:39.844Z,14.92
2018-07-03T05:20:39.853Z,15.04
2018-07-03T05:21:39.881Z,15.07
2018-07-03T05:22:39.905Z,15.14
2018-07-03T05:23:39.919Z,15.29
2018-07-03T05:24:39.984Z,15.33
2018-07-03T05:25:39.954Z,15.36
2018-07-03T05:26:39.982Z,15.45
2018-07-03T05:27:40.008Z,15.54
2018-07-03T05:28:40.032Z,15.66
2018-07-03T05:29:40.053Z,15.75
2018-07-03T05:30:40.075Z,15.96
2018-07-03T05:31:40.110Z,16.08
2018-07-03T05:32:40.117Z,16.36
2018-07-03T05:33:40.144Z,16.54
2018-07-03T05:34:40.155Z,16.76
2018-07-03T05:35:40.182Z,16.94
2018-07-03T05:36:40.204Z,17.16
2018-07-03T05:37:40.230Z,17.31
2018-07-03T05:38:40.250Z,17.53
2018-07-03T05:39:40.274Z,17.71
2018-07-03T05:40:40.296Z,17.65
2018-07-03T05:41:40.336Z,17.79
2018-07-03T05:42:40.346Z,17.90
2018-07-03T05:43:40.362Z,17.94
2018-07-03T05:44:40.390Z,17.94
2018-07-03T05:45:40.418Z,18.03
2018-07-03T05:46:40.438Z,18.05
2018-07-03T05:47:40.452Z,18.08
2018-07-03T05:48:40.534Z,17.95
2018-07-03T05:49:40.507Z,18.05
2018-07-03T05:50:40.534Z,18.00
2018-07-03T05:51:40.561Z,18.02
2018-07-03T05:52:40.575Z,18.06
2018-07-03T05:53:40.596Z,17.98
2018-07-03T05:54:40.625Z,17.91
2018-07-03T05:55:40.653Z,17.97
2018-07-03T05:56:40.674Z,17.94
2018-07-03T05:57:40.685Z,17.91
2018-07-03T05:58:40.714Z,17.98
2018-07-03T05:59:40.740Z,17.93
2018-07-03T06:00:40.770Z,17.90
2018-07-03T06:01:40.787Z,17.91
2018-07-03T06:02:40.810Z,17.86
2018-07-03T06:03:40.832Z,17.90
2018-07-03T06:04:40.850Z,17.91
2018-07-03T06:05:40.875Z,17.93
2018-07-03T06:06:40.900Z,17.91
2018-07-03T06:07:40.924Z,17.91
2018-07-03T06:08:41.068Z,17.98
2018-07-03T06:09:40.960Z,18.02
2018-07-03T06:10:40.992Z,17.94
2018-07-03T06:11:41.020Z,18.00
2018-07-03T06:12:41.027Z,18.02
2018-07-03T06:13:41.053Z,18.03
2018-07-03T06:14:41.077Z,18.16
2018-07-03T06:15:41.102Z,18.15
2018-07-03T06:16:41.121Z,18.15
2018-07-03T06:17:41.147Z,18.15
2018-07-03T06:18:41.174Z,18.28
2018-07-03T06:19:41.200Z,18.31
2018-07-03T06:20:41.210Z,18.31
2018-07-03T06:21:41.235Z,18.34
2018-07-03T06:22:41.295Z,18.45
2018-07-03T06:23:41.288Z,18.60
2018-07-03T06:24:41.318Z,18.78
2018-07-03T06:25:41.332Z,18.89
2018-07-03T06:26:41.352Z,19.01
2018-07-03T06:27:41.379Z,19.22
2018-07-03T06:28:41.454Z,19.49
2018-07-03T06:29:41.439Z,19.60
2018-07-03T06:30:41.462Z,19.87
2018-07-03T06:31:41.488Z,20.19
2018-07-03T06:32:41.591Z,20.46
2018-07-03T06:33:41.536Z,20.70
2018-07-03T06:34:41.566Z,20.85
2018-07-03T06:35:41.594Z,21.07
2018-07-03T06:36:41.617Z,21.20
2018-07-03T06:37:41.710Z,21.30
2018-07-03T06:38:41.664Z,21.44
2018-07-03T06:39:41.701Z,21.63
2018-07-03T06:40:41.733Z,21.80
2018-07-03T06:41:41.762Z,21.92
2018-07-03T06:42:41.781Z,22.03
2018-07-03T06:43:41.809Z,22.25
2018-07-03T06:44:41.839Z,22.44
2018-07-03T06:45:41.876Z,22.62
2018-07-03T06:46:41.901Z,22.76
2018-07-03T06:47:41.927Z,22.86
2018-07-03T06:48:41.952Z,22.93
2018-07-03T06:49:41.986Z,23.14
2018-07-03T06:50:42.016Z,23.26
2018-07-03T06:51:42.050Z,23.54
2018-07-03T06:52:42.079Z,23.69
2018-07-03T06:53:42.112Z,23.92
2018-07-03T06:54:42.131Z,24.09
2018-07-03T06:55:42.169Z,24.36
2018-07-03T06:56:42.199Z,24.58
2018-07-03T06:57:42.225Z,24.77
2018-07-03T06:58:42.258Z,24.96
2018-07-03T06:59:42.283Z,25.18
2018-07-03T07:00:42.326Z,25.44
2018-07-03T07:01:42.364Z,25.52
2018-07-03T07:02:42.396Z,25.74
2018-07-03T07:03:42.421Z,25.95
2018-07-03T07:04:42.453Z,25.92
2018-07-03T07:05:42.479Z,26.19
2018-07-03T07:06:42.522Z,26.29
2018-07-03T07:07:42.550Z,26.51
2018-07-03T07:08:42.678Z,26.67
2018-07-03T07:09:42.667Z,26.78
2018-07-03T07:10:42.645Z,26.93
2018-07-03T07:11:42.682Z,27.00
2018-07-03T07:12:42.712Z,26.93
2018-07-03T07:13:42.752Z,27.11
2018-07-03T07:14:42.776Z,27.28
2018-07-03T07:15:42.816Z,27.43
2018-07-03T07:16:42.859Z,27.53
2018-07-03T07:17:42.882Z,27.66
2018-07-03T07:18:42.919Z,27.67
2018-07-03T07:19:42.958Z,27.88
2018-07-03T07:20:42.979Z,27.82
2018-07-03T07:21:43.017Z,28.09
2018-07-03T07:22:43.063Z,28.20
2018-07-03T07:23:43.090Z,28.22
2018-07-03T07:24:43.122Z,28.31
2018-07-03T07:25:43.161Z,28.37
2018-07-03T07:26:43.198Z,28.50
2018-07-03T07:27:43.225Z,28.67
2018-07-03T07:28:43.267Z,28.70
2018-07-03T07:29:43.304Z,28.80
2018-07-03T07:30:43.341Z,28.80
2018-07-03T07:31:43.369Z,29.05
2018-07-03T07:32:43.409Z,29.06
2018-07-03T07:33:43.448Z,29.15
2018-07-03T07:34:43.484Z,29.21
2018-07-03T07:35:43.510Z,29.27
2018-07-03T07:36:43.547Z,29.31
2018-07-03T07:37:43.583Z,29.42
2018-07-03T07:38:43.626Z,29.59
2018-07-03T07:39:43.667Z,29.57
2018-07-03T07:40:43.698Z,29.65
2018-07-03T07:41:43.725Z,29.86
2018-07-03T07:42:43.806Z,29.77
2018-07-03T07:43:43.804Z,29.81
2018-07-03T07:44:43.846Z,29.94
2018-07-03T07:45:43.884Z,30.03
2018-07-03T07:46:43.916Z,29.95
2018-07-03T07:47:43.956Z,29.95
2018-07-03T07:48:44.001Z,29.98
2018-07-03T07:49:44.037Z,30.08
2018-07-03T07:50:44.065Z,30.03
2018-07-03T07:51:44.104Z,30.03
2018-07-03T07:52:44.138Z,30.10
2018-07-03T07:53:44.178Z,30.05
2018-07-03T07:54:44.219Z,30.16
2018-07-03T07:55:44.256Z,30.31
2018-07-03T07:56:44.292Z,30.32
2018-07-03T07:57:44.344Z,30.31
2018-07-03T07:58:44.356Z,30.40
2018-07-03T07:59:44.392Z,30.56
2018-07-03T08:00:44.435Z,30.62
2018-07-03T08:01:44.474Z,30.62
2018-07-03T08:02:44.509Z,30.58
2018-07-03T08:03:44.548Z,30.71
2018-07-03T08:04:44.590Z,30.63
2018-07-03T08:05:44.630Z,30.73
2018-07-03T08:06:44.728Z,30.71
2018-07-03T08:07:44.705Z,30.61
2018-07-03T08:08:44.741Z,30.69
2018-07-03T08:09:44.777Z,30.78
2018-07-03T08:10:44.819Z,30.89
2018-07-03T08:11:44.859Z,30.91
2018-07-03T08:12:44.893Z,31.02
2018-07-03T08:13:44.931Z,31.04
2018-07-03T08:14:44.971Z,31.05
2018-07-03T08:15:45.011Z,31.07
2018-07-03T08:16:45.052Z,31.02
2018-07-03T08:17:45.097Z,31.04
2018-07-03T08:18:45.128Z,31.14
2018-07-03T08:19:45.163Z,31.17
2018-07-03T08:20:45.204Z,31.10
2018-07-03T08:21:45.243Z,31.15
2018-07-03T08:22:45.284Z,31.25
2018-07-03T08:23:45.333Z,31.22
2018-07-03T08:24:45.369Z,31.26
2018-07-03T08:25:45.407Z,31.33
2018-07-03T08:26:45.448Z,31.32
2018-07-03T08:27:45.486Z,31.37
2018-07-03T08:28:45.520Z,31.41
2018-07-03T08:29:45.558Z,31.57
2018-07-03T08:30:45.599Z,31.41
2018-07-03T08:31:45.650Z,31.35
2018-07-03T08:32:45.683Z,31.35
2018-07-03T08:33:45.722Z,31.35
2018-07-03T08:34:45.753Z,31.35
2018-07-03T08:35:45.802Z,31.30
2018-07-03T08:36:45.844Z,31.32
2018-07-03T08:37:45.934Z,31.28
2018-07-03T08:38:45.923Z,31.33
2018-07-03T08:39:45.962Z,31.29
2018-07-03T08:40:45.996Z,31.33
2018-07-03T08:41:46.035Z,31.30
2018-07-03T08:42:46.108Z,31.39
2018-07-03T08:43:46.117Z,31.39
2018-07-03T08:44:46.163Z,31.41
2018-07-03T08:45:46.200Z,31.42
2018-07-03T08:46:46.241Z,31.39
2018-07-03T08:47:46.276Z,31.52
2018-07-03T08:48:46.319Z,31.51
2018-07-03T08:49:46.356Z,31.60
2018-07-03T08:50:46.393Z,31.72
2018-07-03T08:51:46.486Z,31.69
2018-07-03T08:52:46.486Z,31.85
2018-07-03T08:53:46.529Z,31.81
2018-07-03T08:54:46.574Z,31.89
2018-07-03T08:55:46.604Z,31.93
2018-07-03T08:56:46.636Z,31.97
2018-07-03T08:57:46.673Z,32.00
2018-07-03T08:58:46.729Z,32.08
2018-07-03T08:59:46.771Z,32.17
2018-07-03T09:00:46.845Z,32.20
2018-07-03T09:01:46.839Z,32.19
2018-07-03T09:02:46.880Z,32.29
2018-07-03T09:03:46.955Z,32.37
2018-07-03T09:04:46.973Z,32.30
2018-07-03T09:05:47.012Z,32.35
2018-07-03T09:06:47.044Z,32.31
2018-07-03T09:07:47.084Z,32.38
2018-07-03T09:08:47.139Z,32.35
2018-07-03T09:09:47.175Z,32.34
2018-07-03T09:10:47.219Z,32.30
2018-07-03T09:11:47.256Z,32.30
2018-07-03T09:12:47.304Z,32.35
2018-07-03T09:13:47.341Z,32.44
2018-07-03T09:14:47.383Z,32.44
2018-07-03T09:15:47.421Z,32.44
2018-07-03T09:16:47.469Z,32.41
2018-07-03T09:17:47.543Z,32.45
2018-07-03T09:18:47.545Z,32.42
2018-07-03T09:19:47.581Z,32.48
2018-07-03T09:20:47.636Z,32.45
2018-07-03T09:21:47.677Z,32.54
2018-07-03T09:22:47.712Z,32.57
2018-07-03T09:23:47.751Z,32.63
2018-07-03T09:24:47.805Z,32.68
2018-07-03T09:25:47.848Z,32.73
2018-07-03T09:26:47.881Z,32.73
2018-07-03T09:27:47.918Z,32.63
2018-07-03T09:28:47.965Z,32.64
2018-07-03T09:29:48.005Z,32.61
2018-07-03T09:30:48.111Z,32.68
2018-07-03T09:31:48.089Z,32.71
2018-07-03T09:32:48.135Z,32.68
2018-07-03T09:33:48.175Z,32.68
2018-07-03T09:34:48.210Z,32.81
2018-07-03T09:35:48.261Z,32.86
2018-07-03T09:36:48.304Z,32.86
2018-07-03T09:37:48.342Z,32.93
2018-07-03T09:38:48.392Z,33.10
2018-07-03T09:39:48.428Z,33.08
2018-07-03T09:40:48.472Z,33.19
2018-07-03T09:41:48.511Z,33.15
2018-07-03T09:42:48.558Z,33.00
2018-07-03T09:43:48.597Z,32.93
2018-07-03T09:44:48.631Z,32.88
2018-07-03T09:45:48.683Z,32.86
2018-07-03T09:46:48.726Z,33.00
2018-07-03T09:47:48.765Z,33.00
2018-07-03T09:48:48.832Z,33.13
2018-07-03T09:49:48.849Z,33.23
2018-07-03T09:50:48.888Z,33.42
2018-07-03T09:51:48.939Z,33.54
2018-07-03T09:52:48.983Z,33.54
2018-07-03T09:53:49.020Z,33.50
2018-07-03T09:54:49.108Z,33.61
2018-07-03T09:55:49.135Z,33.55
2018-07-03T09:56:49.147Z,33.54
2018-07-03T09:57:49.237Z,33.63
2018-07-03T09:58:49.240Z,33.55
2018-07-03T09:59:49.540Z,33.47
2018-07-03T10:00:49.323Z,33.53
2018-07-03T10:01:49.369Z,33.57
2018-07-03T10:02:49.408Z,33.77
2018-07-03T10:03:49.455Z,33.66
2018-07-03T10:04:49.493Z,33.81
2018-07-03T10:05:49.541Z,33.79
2018-07-03T10:06:49.582Z,33.95
2018-07-03T10:07:49.616Z,33.97
2018-07-03T10:08:49.675Z,34.10
2018-07-03T10:09:49.709Z,34.22
2018-07-03T10:10:49.746Z,34.35
2018-07-03T10:11:49.805Z,34.37
2018-07-03T10:12:49.841Z,34.55
2018-07-03T10:13:49.890Z,34.73
2018-07-03T10:14:49.927Z,34.73
2018-07-03T10:15:49.966Z,34.79
2018-07-03T10:16:50.013Z,34.73
2018-07-03T10:17:50.051Z,34.78
2018-07-03T10:18:50.124Z,35.04
2018-07-03T10:19:50.145Z,35.13
2018-07-03T10:20:50.180Z,35.19
2018-07-03T10:21:50.230Z,35.32
2018-07-03T10:22:50.273Z,35.39
2018-07-03T10:23:50.321Z,35.44
2018-07-03T10:24:50.365Z,35.56
2018-07-03T10:25:50.408Z,35.66
2018-07-03T10:26:50.460Z,35.71
2018-07-03T10:27:50.485Z,35.84
2018-07-03T10:28:50.541Z,35.98
2018-07-03T10:29:50.578Z,36.09
2018-07-03T10:30:50.631Z,36.26
2018-07-03T10:31:50.674Z,36.36
2018-07-03T10:32:50.719Z,36.55
2018-07-03T10:33:50.756Z,36.65
2018-07-03T10:34:50.806Z,36.70
2018-07-03T10:35:50.845Z,36.70
2018-07-03T10:36:50.889Z,36.82
2018-07-03T10:37:50.939Z,36.67
2018-07-03T10:38:50.976Z,36.67
2018-07-03T10:39:51.026Z,36.65
2018-07-03T10:40:51.060Z,36.76
2018-07-03T10:41:51.111Z,36.67
2018-07-03T10:42:51.157Z,36.88
2018-07-03T10:43:51.208Z,36.84
2018-07-03T10:44:51.241Z,36.75
2018-07-03T10:45:51.305Z,36.66
2018-07-03T10:46:51.329Z,36.54
2018-07-03T10:47:51.380Z,36.51
2018-07-03T10:48:51.479Z,36.45
2018-07-03T10:49:51.473Z,36.48
2018-07-03T10:50:51.507Z,36.51
2018-07-03T10:51:51.559Z,36.36
2018-07-03T10:52:51.602Z,36.25
2018-07-03T10:53:51.642Z,36.25
2018-07-03T10:54:51.694Z,36.36
2018-07-03T10:55:51.731Z,36.44
2018-07-03T10:56:51.777Z,36.36
2018-07-03T10:57:51.816Z,36.35
2018-07-03T10:58:51.877Z,36.54
2018-07-03T10:59:51.910Z,36.69
2018-07-03T11:00:51.967Z,36.66
2018-07-03T11:01:51.993Z,36.70
2018-07-03T11:02:52.034Z,36.97
2018-07-03T11:03:52.084Z,37.01
2018-07-03T11:04:52.128Z,37.01
2018-07-03T11:05:52.179Z,37.01
2018-07-03T11:06:52.212Z,36.99
2018-07-03T11:07:52.265Z,37.07
2018-07-03T11:08:52.307Z,37.09
2018-07-03T11:09:52.344Z,37.01
2018-07-03T11:10:52.393Z,37.10
2018-07-03T11:11:52.433Z,37.04
2018-07-03T11:12:52.480Z,37.18
2018-07-03T11:13:52.584Z,37.33
2018-07-03T11:14:52.574Z,37.34
2018-07-03T11:15:52.614Z,37.36
2018-07-03T11:16:52.648Z,37.40
2018-07-03T11:17:52.698Z,37.56
2018-07-03T11:18:52.734Z,37.67
2018-07-03T11:19:52.857Z,37.78
2018-07-03T11:20:52.829Z,37.97
2018-07-03T11:21:52.879Z,38.19
2018-07-03T11:22:52.914Z,38.31
2018-07-03T11:23:52.953Z,38.41
2018-07-03T11:24:53.007Z,38.44
2018-07-03T11:25:53.047Z,38.42
2018-07-03T11:26:53.100Z,38.32
2018-07-03T11:27:53.137Z,38.31
2018-07-03T11:28:53.234Z,38.29
2018-07-03T11:29:53.223Z,38.17
2018-07-03T11:30:53.276Z,38.25
2018-07-03T11:31:53.315Z,38.14
2018-07-03T11:32:53.362Z,38.09
2018-07-03T11:33:53.401Z,38.12
2018-07-03T11:34:53.440Z,37.98
2018-07-03T11:35:53.505Z,38.04
2018-07-03T11:36:53.536Z,38.10
2018-07-03T11:37:53.585Z,38.16
2018-07-03T11:38:53.619Z,38.32
2018-07-03T11:39:53.668Z,38.41
2018-07-03T11:40:53.711Z,38.50
2018-07-03T11:41:53.750Z,38.62
2018-07-03T11:42:53.830Z,38.70
2018-07-03T11:43:53.845Z,38.85
2018-07-03T11:44:53.961Z,38.81
2018-07-03T11:45:53.926Z,38.79
2018-07-03T11:46:53.980Z,38.72
2018-07-03T11:47:54.018Z,38.68
2018-07-03T11:48:54.064Z,38.51
2018-07-03T11:49:54.102Z,38.53
2018-07-03T11:50:54.146Z,38.50
2018-07-03T11:51:54.199Z,38.51
2018-07-03T11:52:54.237Z,38.48
2018-07-03T11:53:54.287Z,38.47
2018-07-03T11:54:54.322Z,38.50
2018-07-03T11:55:54.374Z,38.63
2018-07-03T11:56:54.429Z,38.72
2018-07-03T11:57:54.455Z,38.73
2018-07-03T11:58:54.503Z,38.48
2018-07-03T11:59:54.540Z,38.51
2018-07-03T12:00:54.589Z,38.51
2018-07-03T12:01:54.627Z,38.65
2018-07-03T12:02:54.683Z,38.75
2018-07-03T12:03:54.722Z,38.54
2018-07-03T12:04:54.783Z,38.44
2018-07-03T12:05:54.810Z,38.36
2018-07-03T12:06:54.843Z,38.46
2018-07-03T12:07:54.894Z,38.51
2018-07-03T12:08:54.938Z,38.48
2018-07-03T12:09:54.989Z,38.60
2018-07-03T12:10:55.023Z,38.69
2018-07-03T12:11:55.073Z,38.85
2018-07-03T12:12:55.116Z,38.91
2018-07-03T12:13:55.154Z,38.88
2018-07-03T12:14:55.207Z,38.51
2018-07-03T12:15:55.246Z,38.51
2018-07-03T12:16:55.296Z,38.53
2018-07-03T12:17:55.331Z,38.48
2018-07-03T12:18:55.372Z,38.73
2018-07-03T12:19:55.482Z,38.76
2018-07-03T12:20:55.457Z,38.85
2018-07-03T12:21:55.509Z,38.98
2018-07-03T12:22:55.550Z,39.05
2018-07-03T12:23:55.588Z,39.07
2018-07-03T12:24:55.642Z,39.20
2018-07-03T12:25:55.681Z,39.19
2018-07-03T12:26:55.729Z,39.39
2018-07-03T12:27:55.769Z,39.38
2018-07-03T12:28:55.820Z,39.39
2018-07-03T12:29:55.860Z,39.48
2018-07-03T12:30:55.897Z,39.48
2018-07-03T12:31:55.948Z,39.56
2018-07-03T12:32:55.986Z,39.60
2018-07-03T12:33:56.022Z,39.49
2018-07-03T12:34:56.079Z,39.48
2018-07-03T12:35:56.116Z,39.49
2018-07-03T12:36:56.162Z,39.46
2018-07-03T12:37:56.202Z,39.38
2018-07-03T12:38:56.249Z,39.33
2018-07-03T12:39:56.292Z,39.30
2018-07-03T12:40:56.332Z,39.12
2018-07-03T12:41:56.382Z,39.07
2018-07-03T12:42:56.421Z,39.01
2018-07-03T12:43:56.484Z,38.72
2018-07-03T12:44:56.506Z,38.65
2018-07-03T12:45:56.544Z,38.75
2018-07-03T12:46:56.584Z,38.85
2018-07-03T12:47:56.636Z,39.01
2018-07-03T12:48:56.678Z,39.19
2018-07-03T12:49:56.718Z,39.22
2018-07-03T12:50:56.761Z,39.46
2018-07-03T12:51:56.800Z,39.56
2018-07-03T12:52:56.855Z,39.63